BGGH

Nuuk Airport

Airport
ICAO code
BGGH
Summary
ICAO Region
NAT
ICAO Territory
Location

Nuuk,

Serving
Nuuk
Elevation
283 ft
Coordinates
64° 11' 27" N , 51° 40' 41" W
KCC
ET
Metar
Observation
BGGH 151150Z 19009G19KT 150V250 9999 -RA FEW025 OVC062 08/07 Q1010
Station
Godthaab / Nuuk
Date/Time
2022-08-15 11:50:00
Wind direction
190°
Wind speed
09 kts
Lowest cloud amount
few clouds
Temperature
8°C
Dew point
7°C
Humidity
93%
QNH
1010 hPa
Weather condition
light rain

Description

International airport serving Godthaab/Nuuk, Greenland.

Climatology

Tundra Climate (Köppen climate classification ET) - average temperature below 10°C in all twelve months of the year with very little precipitation.

Runways

Designator Length Width Surface Rops
5/23 950 30 ASP No/No

Airport map

Aerial View

Airport accidents

SKYbrary Partners:

Safety knowledge contributed by: